Naples, New York
Current Conditions -  °F | °C
As of 3:54 AM on Sunday 26 Oct 2014 (Local Time) from KDSV Reporting Station
Clear Clear  
Wind Chill: 50°   Ceiling: Unl
Heat Index: 50°   Visibility: 10mi
Dew Point: 35°   Wind: 7mph
Humidity: 57%   Direction: 280°W
Pressure: 29.66"   Gusts: 17mph
Location:  42.62°N, 77.4°W
Report Text: KDSV 260754Z AUTO 28006G15KT 10SM CLR 10/02 A2966 RMK AO2 SLP052 T01000017
Loading
Personal Weather Stations






























Interactive Weather Map
Tropical Storm Tracking
New forecast layout! Learn more

10-Day Weather Forecast

Advertisements
Track Severe Weather on mobile